Flight Track Log - Related Links

Times and Time Zones

All times are in EDT time to prevent confusion due to time zone crossing. See the SKW6534 flight status page for this flight to view local times or setup timezone preferences in your user account.

Time Position Orientation Groundspeed Altitude Reporting Facility
EDT Latitude Longitude Course Direction KTS MPH feet Rate Location/Type
Tue 02:14:03 PM 39.9000 -104.6833 346° North 158 182 6,500  Level Denver TRACON
Tue 02:15:03 PM 39.9667 -104.6833 360° North 216 249 8,200 2,000 Climbing Denver TRACON
Tue 02:16:00 PM 40.1734 -104.7737 347° North  Level FlightAware Approximate
Tue 02:16:03 PM 40.0333 -104.6667 11° North 269 310 10,500  Level Denver TRACON
Tue 02:17:00 PM 40.2820 -104.8063 347° North  Level FlightAware Approximate
Tue 02:17:03 PM 40.1167 -104.6667 360° North 295 339 12,700  Level Denver TRACON
Tue 02:18:00 PM 40.3902 -104.8412 346° North  Level FlightAware Approximate
Tue 02:18:08 PM 40.2053 -104.6969 345° North 316 364 15,400  Level Denver Center
Tue 02:19:00 PM 40.4982 -104.8772 346° North  Level FlightAware Approximate
Tue 02:19:10 PM 40.2994 -104.7208 349° North 332 382 17,600  Level Denver Center
Tue 02:20:11 PM 40.3950 -104.7458 349° North 348 400 19,100 1,659 Climbing Denver Center
Tue 02:21:13 PM 40.4994 -104.7736 349° North 357 411 21,000 1,645 Climbing Denver Center
Tue 02:22:15 PM 40.5994 -104.8003 349° North 361 415 22,500 1,355 Climbing Denver Center
Tue 02:23:17 PM 40.7033 -104.8286 348° North 380 437 23,800 1,258 Climbing Denver Center
Tue 02:24:19 PM 40.8133 -104.8619 347° North 378 435 25,100 1,065 Climbing Denver Center
Tue 02:25:21 PM 40.9147 -104.9133 339° North 385 443 26,000 435 Climbing Denver Center
Tue 02:26:23 PM 41.0100 -104.9575 341° North 396 456 26,000  Level Denver Center
Tue 02:27:25 PM 41.1292 -105.0175 339° North 408 470 26,000  Level Denver Center
Tue 02:28:26 PM 41.2317 -105.0669 340° North 408 470 26,000  Level Denver Center
Tue 02:29:28 PM 41.3506 -105.1258 340° North 408 470 26,000  Level Denver Center
Tue 02:30:30 PM 41.4536 -105.1789 339° North 412 474 26,000  Level Denver Center
Tue 02:31:32 PM 41.5658 -105.2597 332° Northwest 426 490 26,000  Level Denver Center
Tue 02:32:34 PM 41.6067 -105.3897 293° West 409 471 26,000  Level Denver Center
Tue 02:33:36 PM 41.6400 -105.5556 285° West 411 473 26,000  Level Denver Center
Tue 02:34:38 PM 41.6714 -105.6947 287° West 411 473 26,000  Level Denver Center
Tue 02:35:40 PM 41.7036 -105.8342 287° West 410 472 26,000  Level Denver Center
Tue 02:36:42 PM 41.7414 -105.9981 287° West 411 473 26,000  Level Denver Center
Tue 02:37:44 PM 41.7728 -106.1397 287° West 414 476 26,000  Level Denver Center
Tue 02:38:45 PM 41.8106 -106.3047 287° West 414 476 26,000  Level Denver Center
Tue 02:39:47 PM 41.8406 -106.4450 286° West 410 472 26,000  Level Denver Center
Tue 02:40:49 PM 41.8758 -106.6033 287° West 415 478 26,000  Level Denver Center
Tue 02:41:51 PM 41.9114 -106.7664 286° West 411 473 26,000  Level Denver Center
Tue 02:42:53 PM 41.9428 -106.9075 287° West 412 474 26,000  Level Denver Center
Tue 02:43:55 PM 41.9736 -107.0478 287° West 411 473 26,000  Level Denver Center
Tue 02:44:57 PM 42.0083 -107.2122 286° West 410 472 26,000  Level Denver Center
Tue 02:45:59 PM 42.0386 -107.3528 286° West 410 472 26,000  Level Denver Center
Tue 02:47:00 PM 42.0722 -107.5181 285° West 411 473 26,000  Level Denver Center
Tue 02:48:02 PM 42.1019 -107.6592 286° West 410 472 26,000  Level Denver Center
Tue 02:49:03 PM 42.1467 -107.8175 291° West 409 471 26,000  Level Salt Lake Center
Tue 02:50:05 PM 42.1933 -107.9508 295° West 411 473 26,000  Level Salt Lake Center
Tue 02:52:09 PM 42.2919 -108.2350 295° West 402 463 26,000  Level Salt Lake Center
Tue 02:53:10 PM 42.3453 -108.3906 295° West 408 470 26,000  Level Salt Lake Center
Tue 02:54:12 PM 42.3922 -108.5244 295° West 411 473 26,000  Level Salt Lake Center
Tue 02:55:14 PM 42.4361 -108.6569 294° West 410 472 26,000  Level Salt Lake Center
Tue 02:56:16 PM 42.4881 -108.8125 294° West 409 471 26,000  Level Salt Lake Center
Tue 02:57:17 PM 42.5322 -108.9467 294° West 408 470 26,000  Level Salt Lake Center
Tue 02:58:19 PM 42.5847 -109.1039 294° West 410 472 26,000  Level Salt Lake Center
Tue 02:59:21 PM 42.6278 -109.2375 294° West 407 468 26,000  Level Salt Lake Center
Tue 03:00:23 PM 42.6786 -109.3939 294° West 406 467 26,000  Level Salt Lake Center
Tue 03:01:24 PM 42.7228 -109.5286 294° West 407 468 26,000  Level Salt Lake Center
Tue 03:02:26 PM 42.7731 -109.6839 294° West 405 466 26,000  Level Salt Lake Center
Tue 03:03:28 PM 42.8161 -109.8161 294° West 402 463 26,000  Level Salt Lake Center
Tue 03:04:30 PM 42.8672 -109.9714 294° West 401 461 26,000  Level Salt Lake Center
Tue 03:05:32 PM 42.9100 -110.1033 294° West 398 458 26,000  Level Salt Lake Center
Tue 03:06:33 PM 42.9506 -110.2319 293° West 393 452 26,000  Level Salt Lake Center
Tue 03:07:35 PM 42.9983 -110.3861 293° West 391 450 26,000  Level Salt Lake Center
Tue 03:08:37 PM 43.0400 -110.5161 294° West 390 449 26,000  Level Salt Lake Center
Tue 03:09:38 PM 43.0878 -110.6667 294° West 388 447 26,000  Level Salt Lake Center
Tue 03:10:40 PM 43.1289 -110.7972 293° West 389 448 26,000 -435 Level Salt Lake Center
Tue 03:11:42 PM 43.1764 -110.9475 293° West 387 445 25,100 -1,161 Descending Salt Lake Center
Tue 03:12:44 PM 43.2164 -111.0803 292° West 392 451 23,600 -1,415 Descending Salt Lake Center
Tue 03:13:45 PM 43.2578 -111.2142 293° West 397 457 22,200 -1,610 Descending Salt Lake Center
Tue 03:14:47 PM 43.3069 -111.3711 293° West 399 459 20,300 -2,226 Descending Salt Lake Center
Tue 03:15:49 PM 43.3461 -111.5003 293° West 390 449 17,600 -2,903 Descending Salt Lake Center
Tue 03:16:51 PM 43.3822 -111.6467 289° West 377 434 14,300 -2,710 Descending Salt Lake Center
Tue 03:17:53 PM 43.3839 -111.7639 271° West 342 394 12,000 -2,049 Descending Salt Lake Center
Tue 03:18:54 PM 43.3744 -111.8900 264° West 318 366 10,100 -1,659 Descending Salt Lake Center
Tue 03:19:56 PM 43.3656 -111.9883 263° West 296 341 8,600 -1,355 Descending Salt Lake Center
Tue 03:20:58 PM 43.3881 -112.0686 291° West 263 303 7,300 -1,113 Descending Salt Lake Center
Tue 03:22:00 PM 43.4275 -112.1300 312° West 219 252 6,300 -726 Descending Salt Lake Center
Tue 03:23:02 PM 43.4661 -112.1281 North 179 206 5,800 -484 Descending Salt Lake Center

Login

Don't have an account? Register now (free) for customized features, flight alerts, and more!